Independence, CA (93526)

1:26 AM PDT on July 13, 2014 (GMT -0700)
CEDAR GROVE (KCAKINGS6) Elev 4717 ft | 36.79 °N, 118.66 °W | Change Station

Current weather conditions updated 10 minutes ago

Clear
Clear
59.0 °F
Feels Like 59.0 °F
N
0.0
Wind Variable Wind from East

Today is forecast to be Much Warmer than yesterday.

Today
High -- | Low -- °F
--% Chance of Precip.
Yesterday
High -- | Low -- °F
Precip. -- in
5:44 AM 8:12 PM
Full, 99% visible
Pressure 29.93 in
Visibility 10.0 miles
Clouds Clear
Dew Point 46 °F
Humidity 61%
Rainfall -999.00 in
Snow Depth Not available.
UV 0 out of 12
Pollen 5.20 out of 12
Air Quality Not available.
Flu Activity Local Activity
METAR KBIH 130756Z AUTO 23005KT 10SM CLR 25/M01 A3011 RMK AO2 SLP135 T02501011 403830144

More Conditions Fewer Conditions

Pressure 29.93 in
Visibility 10.0 miles
Clouds Clear
Dew Point 46 °F
Humidity 61%
Rainfall -999.00 in
Snow Depth Not available.
UV 0 out of 12
Pollen 5.20 out of 12
Air Quality Not available.
Flu Activity Local Activity
METAR KBIH 130756Z AUTO 23005KT 10SM CLR 25/M01 A3011 RMK AO2 SLP135 T02501011 403830144

More Conditions Fewer Conditions

10-Day Weather Forecast

Almanac

Astronomy

Jul. 13, 2014 Rise Set
Actual Time 5:44 AM PDT 8:12 PM PDT
Civil Twilight 5:14 AM PDT 8:42 PM PDT
Nautical Twilight 4:37 AM PDT 9:19 PM PDT
Astronomical Twilight 3:56 AM PDT 10:00 PM PDT
Moon 9:08 PM PDT 7:16 AM PDT
Length of Visible Light 15h 28m
Length of Day
14h 28m
Tomorrow will be 1m 8s shorter.
Full, 99% of the Moon is Illuminated
Today
Full
Jul 18
Last Quarter
Jul 26
New
Aug 3
First Quarter
Aug 10
Full

Today's Extremes

State Highs State Lows

Community

WunderPhotos

Upload Photos

1,733,143 photos uploaded!

Nearby

Snow Depth

Station Depth Elevation
Leavitt Lake 0 in 9400 ft
Leavitt Meadows 0 in 7200 ft
Summit Meadow 0 in 9122 ft
Monitor Pass 0 in 8350 ft
Blue Lakes 0 in 8000 ft

Earthquake Activity

City Distance Mag. Time & Date
Mammoth Lakes, California 65 miles 2.9 5:27 AM PDT
2014-07-07
Mammoth Lakes, California 66 miles 2.8 3:29 AM PDT
2014-07-07
Mammoth Lakes, California 66 miles 2.7 11:25 PM PDT
2014-07-06
Minimum magnitude displayed is 2.5.

Coastal Water Temperatures

Place Temperature
No Stations Reporting

Nearby Weather Stations

Station Location Temp. Windchill Dew Point Humidity Wind Precip. Elev Updated Type
CEDAR GROVE, Kings Canyon National Park, CA 59.0 °F - 46 °F 61% East  at  0.0 mph - / hr 4717 ft 1:15 AM PDT Normal
HADS CHARLOTTE LAKE NEAR INDEPENDENCE CA, Independence, CA 45 °F 45 °F - - North  at  - 0.00 in / hr 10398 ft 12:00 AM PDT MADIS
BIG PINE CREEK, Big Pine, CA 38.0 °F 38 °F - - North  at  - - / hr 9652 ft 12:45 AM PDT Normal
COTTONWOOD LAKES, Lone Pine, CA 43.0 °F 43 °F - - North  at  - - / hr 10213 ft 12:45 AM PDT Normal
CHARLOTTE LAKE, Kings Canyon National Park, CA 45.0 °F 45 °F - - North  at  - - / hr 11968 ft 12:45 AM PDT Normal

Show More Stations Show Fewer Stations